Daphne, AL

7:10 PM CST on December 19, 2014 (GMT -0600)
Edwards | Change Station
CLOSE
Current Station
Airport
Location: Gulf Shores,
Elevation: 16 ft
Nearby Weather Stations

Elev 16 ft 30.29 °N, 87.67 °W | Updated 15 minutes ago

Rain
Rain
48 °F
Feels Like 48 °F
N
10
Wind Variable Wind from NE

Today
High -- | Low -- °F
--% Chance of Precip.
Yesterday
High -- | Low -- °F
Precip. -- in
6:43 AM 4:53 PM
Waning Crescent, 5% visible
Pressure 30.10 in
Visibility 10.0 miles
Clouds Mostly Cloudy 5500 ft
Overcast 8000 ft
Dew Point 46 °F
Humidity 92%
Rainfall 1.32 in
Snow Depth Not available.
UV 0 out of 12
Pollen .50 out of 12
Air Quality Not available.
Flu Activity Not available.
METAR KJKA 200055Z AUTO 05009KT 10SM BKN055 OVC080 09/08 A3010 RMK AO2 P0003 T00880076

More Conditions Fewer Conditions

Pressure 30.10 in
Visibility 10.0 miles
Clouds Mostly Cloudy 5500 ft
Overcast 8000 ft
Dew Point 46 °F
Humidity 92%
Rainfall 1.32 in
Snow Depth Not available.
UV 0 out of 12
Pollen .50 out of 12
Air Quality Not available.
Flu Activity Not available.
METAR KJKA 200055Z AUTO 05009KT 10SM BKN055 OVC080 09/08 A3010 RMK AO2 P0003 T00880076

More Conditions Fewer Conditions

10-Day Weather Forecast

Almanac

Astronomy

Dec. 19, 2014 Rise Set
Actual Time
Civil Twilight
Nautical Twilight
Astronomical Twilight
Moon
Length of Visible Light
Length of Day
Tomorrow will be .
, % of the Moon is Illuminated

Today's Extremes

State Highs State Lows

Community

WunderPhotos

Upload Photos

1,779,099 photos uploaded!

WunderBlogs® & News

Nearby

Air Quality

  Air Quality AQ Index Pollutant
Not available.

Snow Depth

Station Depth Elevation

Earthquake Activity

City Distance Mag. Time & Date
Minimum magnitude displayed is 2.5.

Coastal Water Temperatures

Place Temperature

Nearby Weather Stations